Time;durP1;ratioP1;P1;durP2;ratioP2;P2;SDS_P1;SDS_P2;PMS_P1;PMS_P2;Temp;Humidity;BMP_temperature;BMP_pressure;BME280_temperature;BME280_humidity;BME280_pressure;Samples;Min_cycle;Max_cycle;Signal;HPM_P1;HPM_P2
2022/11/12 00:01:31;;;;;;;2.60;1.27;;;4.60;99.90;;;;;;4860129;29;20048;-89
2022/11/12 00:04:15;;;;;;;2.70;1.10;;;4.60;99.90;;;;;;4857770;29;20083;-86
2022/11/12 00:06:59;;;;;;;4.60;1.55;;;4.60;99.90;;;;;;4861637;29;20041;-89
2022/11/12 00:09:43;;;;;;;3.67;1.63;;;4.60;99.90;;;;;;4852618;29;20517;-89
2022/11/12 00:12:28;;;;;;;4.60;1.77;;;4.60;99.90;;;;;;4866163;29;20184;-87
2022/11/12 00:15:12;;;;;;;3.95;1.60;;;4.60;99.90;;;;;;4855698;29;20346;-88
2022/11/12 00:17:56;;;;;;;2.60;1.45;;;4.50;99.90;;;;;;4858853;29;20405;-86
2022/11/12 00:20:41;;;;;;;5.68;1.65;;;4.40;99.90;;;;;;4858610;29;20242;-87
2022/11/12 00:23:25;;;;;;;3.22;1.02;;;4.40;99.90;;;;;;4858103;29;20077;-89
2022/11/12 00:26:09;;;;;;;3.10;1.52;;;4.40;99.90;;;;;;4855773;29;20057;-89
2022/11/12 00:28:54;;;;;;;2.88;1.35;;;4.40;99.90;;;;;;4855275;29;20048;-86
2022/11/12 00:31:38;;;;;;;4.80;1.90;;;4.40;99.90;;;;;;4869517;29;20116;-85
2022/11/12 00:34:22;;;;;;;3.05;1.42;;;4.20;99.90;;;;;;4856806;29;20066;-88
2022/11/12 00:37:07;;;;;;;2.72;1.48;;;4.20;99.90;;;;;;4857018;29;20043;-85
2022/11/12 00:39:51;;;;;;;4.82;1.27;;;4.10;99.90;;;;;;4866004;29;20056;-89
2022/11/12 00:42:35;;;;;;;3.28;1.42;;;4.20;99.90;;;;;;4851790;29;20454;-88
2022/11/12 00:45:19;;;;;;;2.75;1.65;;;4.10;99.90;;;;;;4861548;29;20505;-89
2022/11/12 00:48:04;;;;;;;3.00;1.33;;;4.10;99.90;;;;;;4853282;29;20049;-87
2022/11/12 00:50:48;;;;;;;3.00;1.42;;;4.00;99.90;;;;;;4854715;29;20090;-88
2022/11/12 00:53:32;;;;;;;3.13;1.48;;;4.10;99.90;;;;;;4853643;29;20048;-88
2022/11/12 00:56:16;;;;;;;3.92;1.45;;;4.00;99.90;;;;;;4853977;29;20049;-88
2022/11/12 00:59:00;;;;;;;2.65;1.17;;;4.00;99.90;;;;;;4855799;29;20036;-88
2022/11/12 01:01:44;;;;;;;3.05;1.42;;;4.00;99.90;;;;;;4867199;29;20133;-86
2022/11/12 01:04:28;;;;;;;2.83;1.40;;;4.00;99.90;;;;;;4854392;29;20037;-86
2022/11/12 01:07:14;;;;;;;3.40;1.10;;;3.90;99.90;;;;;;4856243;29;20401;-88
2022/11/12 01:09:59;;;;;;;4.05;1.40;;;3.90;99.90;;;;;;4856213;29;20106;-86
2022/11/12 01:12:43;;;;;;;3.35;1.00;;;3.90;99.90;;;;;;4853563;29;20570;-87
2022/11/12 01:15:27;;;;;;;3.40;1.27;;;3.90;99.90;;;;;;4861817;29;20044;-86
2022/11/12 01:18:11;;;;;;;3.83;1.45;;;4.00;99.90;;;;;;4853349;29;20048;-88
2022/11/12 01:21:00;;;;;;;3.38;1.58;;;4.00;99.90;;;;;;4853347;29;20072;-88
2022/11/12 01:23:44;;;;;;;4.25;1.10;;;3.90;99.90;;;;;;4853913;29;20567;-88
2022/11/12 01:26:28;;;;;;;2.50;0.95;;;3.80;99.90;;;;;;4855035;29;20052;-89
2022/11/12 01:29:12;;;;;;;2.50;1.08;;;3.90;99.90;;;;;;4851262;29;20041;-87
2022/11/12 01:31:57;;;;;;;3.33;1.52;;;3.90;99.90;;;;;;4850100;29;20093;-86
2022/11/12 01:34:40;;;;;;;3.15;1.13;;;3.90;99.90;;;;;;4854769;29;20415;-88
2022/11/12 01:37:25;;;;;;;2.97;1.10;;;3.70;99.90;;;;;;4852522;29;20067;-88
2022/11/12 01:40:09;;;;;;;3.90;1.20;;;3.80;99.90;;;;;;4854206;29;20048;-89
2022/11/12 01:42:53;;;;;;;3.35;1.02;;;3.80;99.90;;;;;;4863871;29;20592;-86
2022/11/12 01:45:45;;;;;;;2.63;1.20;;;3.70;99.90;;;;;;4852585;29;20045;-88
2022/11/12 01:48:29;;;;;;;2.40;1.00;;;3.80;99.90;;;;;;4851311;29;20102;-88
2022/11/12 01:51:14;;;;;;;3.63;1.15;;;3.70;99.90;;;;;;4851238;29;20043;-88
2022/11/12 01:54:04;;;;;;;2.90;1.35;;;3.70;99.90;;;;;;4865523;29;20505;-87
2022/11/12 01:56:49;;;;;;;2.92;1.02;;;3.60;99.90;;;;;;4864031;29;20048;-87
2022/11/12 01:59:39;;;;;;;3.55;1.20;;;3.60;99.90;;;;;;4853228;29;20559;-88
2022/11/12 02:02:23;;;;;;;2.80;1.55;;;3.60;99.90;;;;;;4865591;29;20442;-88
2022/11/12 02:05:09;;;;;;;2.65;1.13;;;3.60;99.90;;;;;;4852212;29;20033;-88
2022/11/12 02:07:56;;;;;;;2.03;0.85;;;3.60;99.90;;;;;;4855538;29;20158;-87
2022/11/12 02:10:40;;;;;;;3.92;1.42;;;3.60;99.90;;;;;;4855536;29;20036;-87
2022/11/12 02:16:35;;;;;;;2.85;1.00;;;3.70;99.90;;;;;;4855718;29;20036;-88
2022/11/12 02:19:19;;;;;;;5.57;1.25;;;3.60;99.90;;;;;;4851224;29;20164;-87
2022/11/12 02:22:04;;;;;;;3.05;1.10;;;3.50;99.90;;;;;;4863853;29;20060;-87
2022/11/12 02:24:47;;;;;;;2.65;1.30;;;3.30;99.90;;;;;;4853596;29;20053;-90
2022/11/12 02:27:32;;;;;;;2.85;1.17;;;3.20;99.90;;;;;;4855665;29;20161;-88
2022/11/12 02:30:18;;;;;;;2.83;1.25;;;3.30;99.90;;;;;;4856307;29;20086;-87
2022/11/12 02:33:03;;;;;;;2.63;1.23;;;3.20;99.90;;;;;;4853829;29;20098;-88
2022/11/12 02:35:47;;;;;;;2.90;1.15;;;3.30;99.90;;;;;;4854289;29;20044;-89
2022/11/12 02:38:31;;;;;;;2.15;0.93;;;3.30;99.90;;;;;;4855313;29;20490;-89
2022/11/12 02:41:15;;;;;;;3.50;0.98;;;3.50;99.90;;;;;;4855310;29;20049;-88
2022/11/12 02:44:00;;;;;;;2.50;1.30;;;3.60;99.90;;;;;;4855414;29;20506;-88
2022/11/12 02:46:44;;;;;;;2.35;1.15;;;3.60;99.90;;;;;;4854392;29;20049;-88
2022/11/12 02:49:28;;;;;;;3.40;1.40;;;3.60;99.90;;;;;;4854941;29;20462;-87
2022/11/12 02:52:12;;;;;;;2.67;1.17;;;3.60;99.90;;;;;;4854164;29;20121;-87
2022/11/12 02:54:56;;;;;;;2.17;1.00;;;3.60;99.90;;;;;;4851927;29;20040;-87
2022/11/12 02:57:40;;;;;;;3.70;1.10;;;3.50;99.90;;;;;;4851624;29;20044;-86
2022/11/12 03:00:25;;;;;;;4.25;1.15;;;3.50;99.90;;;;;;4851378;29;20053;-88
2022/11/12 03:03:09;;;;;;;2.42;1.00;;;3.40;99.90;;;;;;4852491;29;20049;-87
2022/11/12 03:05:55;;;;;;;3.63;1.23;;;3.50;99.90;;;;;;4850558;29;20081;-87
2022/11/12 03:08:40;;;;;;;3.25;1.00;;;3.50;99.90;;;;;;4855047;29;20090;-90
2022/11/12 03:11:24;;;;;;;3.20;1.25;;;3.50;99.90;;;;;;4852779;29;20047;-88
2022/11/12 03:14:08;;;;;;;1.85;0.88;;;3.30;99.90;;;;;;4855117;29;20052;-89
2022/11/12 03:16:52;;;;;;;2.85;1.20;;;3.40;99.90;;;;;;4853468;29;20475;-87
2022/11/12 03:19:36;;;;;;;3.20;0.93;;;3.40;99.90;;;;;;4855859;29;20128;-87
2022/11/12 03:22:20;;;;;;;3.88;1.20;;;3.40;99.90;;;;;;4868452;29;20064;-88
2022/11/12 03:25:06;;;;;;;4.78;1.00;;;3.30;99.90;;;;;;4863204;29;20107;-89
2022/11/12 03:28:00;;;;;;;2.40;1.10;;;3.20;99.90;;;;;;4859101;29;20153;-87
2022/11/12 03:30:44;;;;;;;2.47;0.85;;;3.40;99.90;;;;;;4855859;29;20093;-88
2022/11/12 03:33:29;;;;;;;3.20;0.98;;;3.60;99.90;;;;;;4857729;29;20558;-88
2022/11/12 03:36:13;;;;;;;2.58;1.13;;;3.50;99.90;;;;;;4864562;29;20047;-88
2022/11/12 03:38:57;;;;;;;2.75;1.33;;;3.70;99.90;;;;;;4868643;29;20447;-88
2022/11/12 03:41:41;;;;;;;2.70;1.10;;;3.70;99.90;;;;;;4858598;29;20060;-86
2022/11/12 03:44:25;;;;;;;3.20;1.17;;;3.90;99.90;;;;;;4855855;29;20508;-86
2022/11/12 03:47:09;;;;;;;2.75;1.25;;;3.80;99.90;;;;;;4853868;29;20115;-88
2022/11/12 03:49:53;;;;;;;3.45;1.45;;;3.90;99.90;;;;;;4857040;29;20044;-86
2022/11/12 03:52:38;;;;;;;3.13;1.52;;;3.80;99.90;;;;;;4864690;29;20549;-88
2022/11/12 03:55:25;;;;;;;2.75;1.15;;;3.80;99.90;;;;;;4852624;29;20036;-86
2022/11/12 03:58:09;;;;;;;2.78;1.02;;;3.80;99.90;;;;;;4854714;29;20099;-87
2022/11/12 04:00:53;;;;;;;2.67;1.08;;;3.90;99.90;;;;;;4855208;29;20057;-87
2022/11/12 04:03:37;;;;;;;2.33;0.75;;;3.90;99.90;;;;;;4856153;29;20629;-88
2022/11/12 04:09:24;;;;;;;3.05;1.27;;;4.00;99.90;;;;;;4854664;29;20528;-89
2022/11/12 04:15:10;;;;;;;3.97;0.95;;;4.10;99.90;;;;;;4855758;29;20052;-87
2022/11/12 04:24:00;;;;;;;3.65;1.08;;;3.80;99.90;;;;;;4855206;29;20041;-87
2022/11/12 04:26:45;;;;;;;2.45;1.13;;;3.90;99.90;;;;;;4857993;29;20072;-89
2022/11/12 04:32:36;;;;;;;2.42;1.20;;;3.90;99.90;;;;;;4856304;29;20063;-89
2022/11/12 04:35:22;;;;;;;2.65;0.85;;;4.00;99.90;;;;;;4857181;29;20037;-87
2022/11/12 04:38:06;;;;;;;3.13;1.10;;;4.00;99.90;;;;;;4854909;29;20117;-89
2022/11/12 04:46:57;;;;;;;1.88;0.98;;;4.00;99.90;;;;;;4856164;29;20166;-89
2022/11/12 04:49:41;;;;;;;2.50;0.95;;;4.10;99.90;;;;;;4858189;29;20085;-89
2022/11/12 04:52:26;;;;;;;2.90;1.45;;;3.90;99.90;;;;;;4857606;29;20090;-88
2022/11/12 04:55:11;;;;;;;2.17;0.85;;;3.90;99.90;;;;;;4852741;29;20410;-89
2022/11/12 04:57:55;;;;;;;3.00;1.20;;;4.00;99.90;;;;;;4852041;29;20041;-89
2022/11/12 05:00:39;;;;;;;3.20;0.85;;;4.00;99.90;;;;;;4856065;29;20047;-89
2022/11/12 05:03:23;;;;;;;3.03;0.82;;;4.00;99.90;;;;;;4855373;29;20035;-90
2022/11/12 05:06:50;;;;;;;1.85;0.70;;;4.00;99.90;;;;;;4856280;29;20045;-89
2022/11/12 05:09:11;;;;;;;3.78;0.93;;;4.00;99.90;;;;;;4855630;29;20386;-89
2022/11/12 05:11:56;;;;;;;2.50;0.90;;;4.00;99.90;;;;;;4853112;29;20107;-88
2022/11/12 05:14:40;;;;;;;3.30;1.05;;;4.00;99.90;;;;;;4852243;29;20072;-88
2022/11/12 05:17:24;;;;;;;3.13;0.80;;;3.90;99.90;;;;;;4854030;29;20039;-88
2022/11/12 05:20:10;;;;;;;2.50;1.00;;;3.90;99.90;;;;;;4855700;29;20516;-88
2022/11/12 05:22:54;;;;;;;2.20;0.98;;;3.90;99.90;;;;;;4864987;29;20049;-88
2022/11/12 05:25:38;;;;;;;2.20;0.90;;;4.00;99.90;;;;;;4854533;29;20045;-88
2022/11/12 05:28:22;;;;;;;4.93;1.40;;;3.90;99.90;;;;;;4851534;29;20521;-89
2022/11/12 05:31:07;;;;;;;2.83;1.10;;;3.80;99.90;;;;;;4855575;29;20036;-90
2022/11/12 05:33:51;;;;;;;2.80;0.80;;;3.90;99.90;;;;;;4853691;29;20049;-88
2022/11/12 05:36:36;;;;;;;2.47;0.88;;;4.00;99.90;;;;;;4855950;29;20044;-88
2022/11/12 05:39:20;;;;;;;2.58;0.73;;;4.10;99.90;;;;;;4855571;29;20041;-89
2022/11/12 05:42:05;;;;;;;2.47;0.80;;;4.10;99.90;;;;;;4865745;29;20514;-89
2022/11/12 05:44:49;;;;;;;3.72;0.93;;;4.20;99.90;;;;;;4853614;29;20048;-87
2022/11/12 05:47:33;;;;;;;2.30;1.10;;;4.00;99.90;;;;;;4853618;29;20144;-89
2022/11/12 05:50:17;;;;;;;2.38;1.02;;;4.00;99.90;;;;;;4855051;29;20036;-87
2022/11/12 05:53:04;;;;;;;2.80;0.90;;;4.00;99.90;;;;;;4865087;29;20107;-88
2022/11/12 05:55:48;;;;;;;2.10;0.85;;;4.00;99.90;;;;;;4865806;29;20093;-90
2022/11/12 05:58:33;;;;;;;2.35;0.95;;;3.80;99.90;;;;;;4853995;29;20394;-87
2022/11/12 06:01:17;;;;;;;2.10;0.70;;;3.80;99.90;;;;;;4854746;29;20513;-89
2022/11/12 06:04:01;;;;;;;2.67;1.02;;;3.80;99.90;;;;;;4851288;29;20041;-89
2022/11/12 06:06:45;;;;;;;3.22;1.08;;;3.90;99.90;;;;;;4852810;29;20043;-87
2022/11/12 06:09:29;;;;;;;2.47;1.15;;;3.90;99.90;;;;;;4850754;29;20075;-87
2022/11/12 06:12:13;;;;;;;2.05;0.98;;;3.90;99.90;;;;;;4852287;29;20105;-89
2022/11/12 06:14:57;;;;;;;3.70;0.93;;;3.90;99.90;;;;;;4853648;29;20034;-89
2022/11/12 06:17:41;;;;;;;2.38;0.95;;;4.00;99.90;;;;;;4864654;29;20072;-88
2022/11/12 06:20:25;;;;;;;1.85;0.77;;;3.90;99.90;;;;;;4854113;29;20413;-89
2022/11/12 06:23:10;;;;;;;1.65;0.82;;;3.80;99.90;;;;;;4851953;29;20035;-89
2022/11/12 06:25:54;;;;;;;2.78;0.90;;;3.80;99.90;;;;;;4853855;29;20097;-87
2022/11/12 06:28:38;;;;;;;2.28;0.70;;;3.90;99.90;;;;;;4854948;29;20048;-88
2022/11/12 06:31:22;;;;;;;2.50;0.90;;;3.90;99.90;;;;;;4851069;29;20053;-88
2022/11/12 06:34:07;;;;;;;2.83;1.17;;;4.00;99.90;;;;;;4855874;29;20120;-87
2022/11/12 06:36:51;;;;;;;3.20;1.10;;;4.00;99.90;;;;;;4851157;29;20097;-89
2022/11/12 06:39:35;;;;;;;2.95;1.10;;;3.90;99.90;;;;;;4864337;29;20121;-88
2022/11/12 06:42:19;;;;;;;2.88;1.35;;;3.70;99.90;;;;;;4856000;29;20547;-88
2022/11/12 06:45:03;;;;;;;2.33;1.20;;;3.70;99.90;;;;;;4853089;29;20040;-87
2022/11/12 06:47:47;;;;;;;3.47;1.30;;;3.70;99.90;;;;;;4854589;29;20183;-88
2022/11/12 06:50:32;;;;;;;5.60;1.65;;;3.70;99.90;;;;;;4855378;29;20040;-89
2022/11/12 06:53:15;;;;;;;2.60;1.20;;;3.60;99.90;;;;;;4852330;29;20093;-86
2022/11/12 06:56:04;;;;;;;3.38;1.30;;;3.60;99.90;;;;;;4856360;29;20125;-87
2022/11/12 06:58:49;;;;;;;2.58;1.13;;;3.60;99.90;;;;;;4854713;29;20474;-87
2022/11/12 07:01:33;;;;;;;2.90;1.08;;;3.60;99.90;;;;;;4857868;29;20446;-87
2022/11/12 07:04:17;;;;;;;3.28;1.10;;;3.50;99.90;;;;;;4869389;29;20497;-88
2022/11/12 07:07:01;;;;;;;1.85;0.90;;;3.50;99.90;;;;;;4857681;29;20382;-87
2022/11/12 07:09:45;;;;;;;2.60;1.08;;;3.60;99.90;;;;;;4857548;29;20037;-88
2022/11/12 07:12:29;;;;;;;2.83;1.10;;;3.60;99.90;;;;;;4858384;29;20068;-89
2022/11/12 07:15:13;;;;;;;2.85;1.27;;;3.50;99.90;;;;;;4866382;29;20145;-90
2022/11/12 07:17:58;;;;;;;2.20;1.00;;;3.50;99.90;;;;;;4851728;29;20040;-89
2022/11/12 07:20:42;;;;;;;2.45;1.10;;;3.50;99.90;;;;;;4861201;29;20048;-89
2022/11/12 07:23:26;;;;;;;2.00;1.05;;;3.40;99.90;;;;;;4864639;29;20565;-89
2022/11/12 07:26:20;;;;;;;2.78;0.90;;;3.50;99.90;;;;;;4865851;29;20121;-89
2022/11/12 07:29:06;;;;;;;2.33;1.17;;;3.50;99.90;;;;;;4858995;29;20443;-90
2022/11/12 07:31:50;;;;;;;2.53;0.90;;;3.60;99.90;;;;;;4851297;29;20074;-89
2022/11/12 07:34:35;;;;;;;3.03;0.85;;;3.50;99.90;;;;;;4856529;29;20040;-89
2022/11/12 07:37:19;;;;;;;1.85;0.90;;;3.60;99.90;;;;;;4853846;29;20064;-89
2022/11/12 07:40:04;;;;;;;2.58;0.90;;;3.60;99.90;;;;;;4848920;29;20048;-90
2022/11/12 07:42:48;;;;;;;2.92;1.10;;;3.70;99.90;;;;;;4865668;29;20053;-90
2022/11/12 07:45:33;;;;;;;2.17;1.10;;;3.60;99.90;;;;;;4865155;29;20382;-90
2022/11/12 07:48:17;;;;;;;3.63;1.10;;;3.60;99.90;;;;;;4854248;29;20040;-90
2022/11/12 07:51:07;;;;;;;2.25;1.08;;;3.60;99.90;;;;;;4861449;29;20512;-89
2022/11/12 07:53:58;;;;;;;2.58;0.82;;;3.80;99.90;;;;;;4859118;29;20132;-91
2022/11/12 07:56:42;;;;;;;1.83;0.80;;;3.80;99.90;;;;;;4851862;29;20045;-89
2022/11/12 07:59:27;;;;;;;2.83;0.95;;;3.80;99.90;;;;;;4853096;29;20524;-89
2022/11/12 08:02:11;;;;;;;2.53;0.95;;;3.90;99.90;;;;;;4860229;29;20546;-90
2022/11/12 08:04:55;;;;;;;1.77;0.70;;;4.00;99.90;;;;;;4855502;29;20443;-91
2022/11/12 08:07:40;;;;;;;3.75;1.00;;;4.10;99.90;;;;;;4852490;29;20074;-89
2022/11/12 08:10:25;;;;;;;1.98;0.95;;;4.20;99.90;;;;;;4856795;29;20057;-90
2022/11/12 08:13:09;;;;;;;5.47;0.95;;;4.40;99.90;;;;;;4850438;29;20479;-90
2022/11/12 08:15:57;;;;;;;1.85;0.90;;;4.60;99.90;;;;;;4863888;29;20717;-91
2022/11/12 08:18:42;;;;;;;2.25;1.10;;;4.80;99.90;;;;;;4857928;29;20037;-89
2022/11/12 08:21:26;;;;;;;2.58;1.50;;;4.80;99.90;;;;;;4853466;29;20495;-89
2022/11/12 08:24:11;;;;;;;3.38;1.45;;;4.90;99.90;;;;;;4859859;29;20064;-91
2022/11/12 08:26:55;;;;;;;2.35;1.15;;;5.10;99.90;;;;;;4851392;29;20520;-90
2022/11/12 08:29:39;;;;;;;3.88;1.00;;;5.10;99.90;;;;;;4858291;29;20047;-90
2022/11/12 08:32:23;;;;;;;2.63;1.02;;;5.20;99.90;;;;;;4858015;29;20040;-90
2022/11/12 08:35:08;;;;;;;2.30;1.08;;;5.40;99.90;;;;;;4852844;29;20041;-91
2022/11/12 08:38:03;;;;;;;2.22;1.08;;;5.50;99.90;;;;;;4856953;29;20093;-89
2022/11/12 08:40:49;;;;;;;4.00;1.58;;;5.70;99.90;;;;;;4856638;29;20421;-89
2022/11/12 08:43:34;;;;;;;2.67;1.35;;;5.80;99.90;;;;;;4855528;29;20082;-89
2022/11/12 08:46:18;;;;;;;3.05;1.42;;;6.00;99.90;;;;;;4854221;29;20097;-91
2022/11/12 08:49:02;;;;;;;3.83;1.40;;;6.10;99.90;;;;;;4853040;29;20092;-91
2022/11/12 08:51:47;;;;;;;3.80;1.20;;;6.20;99.90;;;;;;4853715;29;20170;-91
2022/11/12 08:54:31;;;;;;;3.40;1.40;;;6.30;99.90;;;;;;4851568;29;20100;-91
2022/11/12 08:57:15;;;;;;;3.35;1.33;;;6.50;99.90;;;;;;4845567;29;20100;-90
2022/11/12 08:59:59;;;;;;;3.35;1.48;;;6.60;99.90;;;;;;4853059;29;20037;-91
2022/11/12 09:02:43;;;;;;;3.50;1.65;;;6.70;99.90;;;;;;4852480;29;20136;-89
2022/11/12 09:05:28;;;;;;;2.80;1.23;;;6.80;99.90;;;;;;4853485;29;20059;-91
2022/11/12 09:08:18;;;;;;;2.90;1.80;;;7.00;99.90;;;;;;4863152;29;20053;-91
2022/11/12 09:11:02;;;;;;;3.33;1.77;;;7.20;99.90;;;;;;4854099;29;20065;-89
2022/11/12 09:13:47;;;;;;;4.97;1.92;;;7.30;99.90;;;;;;4855327;29;20100;-91
2022/11/12 09:16:31;;;;;;;3.75;1.63;;;7.40;99.90;;;;;;4865449;29;20097;-89
2022/11/12 09:19:15;;;;;;;5.20;2.10;;;7.70;99.90;;;;;;4855340;29;20037;-91
2022/11/12 09:22:00;;;;;;;4.07;1.70;;;7.80;99.90;;;;;;4860664;29;20118;-91
2022/11/12 09:24:44;;;;;;;3.63;1.85;;;7.90;99.90;;;;;;4851873;29;20218;-91
2022/11/12 09:27:29;;;;;;;3.83;2.33;;;8.00;99.90;;;;;;4864070;29;20415;-91
2022/11/12 09:30:13;;;;;;;3.58;1.55;;;8.10;99.90;;;;;;4852796;29;20123;-89
2022/11/12 09:32:58;;;;;;;2.88;1.67;;;8.30;99.90;;;;;;4855297;29;20047;-90
2022/11/12 09:35:44;;;;;;;3.75;1.80;;;8.50;99.90;;;;;;4853494;29;20056;-90
2022/11/12 09:38:28;;;;;;;3.47;1.90;;;8.60;99.90;;;;;;4866406;29;20036;-91
2022/11/12 09:41:25;;;;;;;4.15;1.92;;;8.70;99.90;;;;;;4867806;29;20076;-91
2022/11/12 09:44:14;;;;;;;3.85;1.70;;;8.90;99.90;;;;;;4864132;29;20080;-92
2022/11/12 09:47:11;;;;;;;3.35;1.35;;;9.00;99.90;;;;;;4861853;29;20097;-90
2022/11/12 09:50:23;;;;;;;3.65;1.65;;;8.90;99.90;;;;;;4850365;29;20056;-91
2022/11/12 09:53:24;;;;;;;2.88;1.40;;;8.90;99.90;;;;;;4866090;29;20055;-91
2022/11/12 09:56:20;;;;;;;2.90;1.42;;;9.10;99.90;;;;;;4854776;29;20044;-90
2022/11/12 09:59:13;;;;;;;3.25;1.67;;;9.20;99.90;;;;;;4850377;29;20044;-89
2022/11/12 10:01:58;;;;;;;3.20;1.52;;;9.30;99.90;;;;;;4848035;29;20048;-90
2022/11/12 10:04:54;;;;;;;2.65;1.58;;;9.50;99.90;;;;;;4852446;29;20117;-91
2022/11/12 10:08:05;;;;;;;2.40;1.17;;;9.60;99.90;;;;;;4850565;29;20121;-89
2022/11/12 10:11:01;;;;;;;3.78;1.55;;;9.70;99.90;;;;;;4862601;29;20093;-90
2022/11/12 10:14:13;;;;;;;1.88;1.05;;;9.90;99.90;;;;;;4852384;29;20109;-90
2022/11/12 10:17:26;;;;;;;2.70;1.60;;;10.00;99.90;;;;;;4852162;29;20045;-91
2022/11/12 10:20:22;;;;;;;2.70;1.33;;;10.10;99.90;;;;;;4852714;29;20041;-90
2022/11/12 10:23:25;;;;;;;3.42;1.80;;;10.20;99.90;;;;;;4863179;29;20157;-91
2022/11/12 10:26:21;;;;;;;2.33;1.30;;;10.30;99.90;;;;;;4850958;29;20077;-90
2022/11/12 10:29:33;;;;;;;2.47;1.38;;;10.50;99.90;;;;;;4849170;29;20068;-90
2022/11/12 10:32:18;;;;;;;2.97;1.45;;;10.60;99.90;;;;;;4863540;29;20356;-92
2022/11/12 10:35:03;;;;;;;2.97;1.50;;;10.60;99.90;;;;;;4853158;29;20382;-91
2022/11/12 10:37:59;;;;;;;2.85;1.58;;;10.80;99.90;;;;;;4853081;29;20605;-90
2022/11/12 10:40:43;;;;;;;3.03;1.50;;;10.90;99.90;;;;;;4850097;29;20093;-91
2022/11/12 10:43:27;;;;;;;4.07;1.80;;;10.90;99.90;;;;;;4848703;29;20077;-90
2022/11/12 10:46:18;;;;;;;3.25;1.45;;;11.10;99.90;;;;;;4850759;29;20068;-91
2022/11/12 10:49:09;;;;;;;3.35;1.52;;;11.20;99.90;;;;;;4863533;29;20040;-90
2022/11/12 10:51:56;;;;;;;4.05;1.63;;;11.40;99.90;;;;;;4852942;29;20557;-90
2022/11/12 10:54:40;;;;;;;2.20;1.58;;;11.50;99.90;;;;;;4864250;29;20045;-91
2022/11/12 10:57:26;;;;;;;2.92;1.67;;;11.60;99.90;;;;;;4850103;29;20076;-92
2022/11/12 11:00:17;;;;;;;2.67;1.55;;;11.60;99.90;;;;;;4848343;29;20057;-90
2022/11/12 11:03:21;;;;;;;3.25;1.48;;;11.60;99.90;;;;;;4863817;29;20464;-90
2022/11/12 11:06:26;;;;;;;2.42;1.35;;;11.70;99.90;;;;;;4853686;29;20072;-91
2022/11/12 11:09:19;;;;;;;2.10;1.00;;;11.80;99.90;;;;;;4864934;29;20048;-91
2022/11/12 11:12:20;;;;;;;2.00;0.93;;;11.80;99.90;;;;;;4865562;29;20113;-90
2022/11/12 11:15:27;;;;;;;1.75;0.82;;;12.00;99.90;;;;;;4864213;29;20052;-91
2022/11/12 11:18:13;;;;;;;1.98;1.00;;;12.00;99.90;;;;;;4865033;29;20053;-91
2022/11/12 11:21:18;;;;;;;1.98;0.70;;;12.10;99.90;;;;;;4862990;29;20464;-91
2022/11/12 11:24:08;;;;;;;2.17;0.80;;;12.10;99.90;;;;;;4858563;29;20141;-90
2022/11/12 11:26:58;;;;;;;;;;;12.10;99.90;;;;;;4866778;29;20061;-90
2022/11/12 11:29:57;;;;;;;1.80;0.70;;;12.30;99.90;;;;;;4866173;29;19923;-90
2022/11/12 11:33:02;;;;;;;1.42;0.68;;;12.40;99.90;;;;;;4851240;29;20060;-91
2022/11/12 11:36:20;;;;;;;1.80;0.85;;;12.50;99.90;;;;;;4865179;29;20570;-90
2022/11/12 11:39:23;;;;;;;1.88;0.80;;;12.50;99.90;;;;;;4850939;29;20174;-92
2022/11/12 11:42:40;;;;;;;1.80;0.57;;;12.60;99.90;;;;;;4865605;29;20552;-90
2022/11/12 11:45:50;;;;;;;1.48;0.60;;;12.60;99.90;;;;;;4856211;29;20037;-92
2022/11/12 11:49:03;;;;;;;1.58;0.85;;;12.70;99.90;;;;;;4838128;29;20068;-90
2022/11/12 11:52:15;;;;;;;2.28;0.57;;;12.80;99.90;;;;;;4859359;29;20082;-93
2022/11/12 11:55:19;;;;;;;1.52;0.60;;;13.00;99.90;;;;;;4859043;29;20084;-92
2022/11/12 11:58:08;;;;;;;2.25;0.63;;;13.00;99.90;;;;;;4845278;29;20048;-91
2022/11/12 12:01:12;;;;;;;1.60;0.63;;;13.10;99.90;;;;;;4857997;29;20871;-90
2022/11/12 12:04:49;;;;;;;1.10;0.50;;;13.20;99.90;;;;;;4858584;29;20040;-91
2022/11/12 12:07:40;;;;;;;1.40;0.60;;;13.20;99.90;;;;;;4820689;29;20120;-91
2022/11/12 12:10:48;;;;;;;2.28;0.70;;;13.20;99.90;;;;;;4857384;29;20052;-91
2022/11/12 12:13:48;;;;;;;1.42;0.50;;;13.00;99.90;;;;;;4844751;29;20445;-91
2022/11/12 12:16:41;;;;;;;1.80;0.80;;;13.10;99.90;;;;;;4852075;29;20040;-90
2022/11/12 12:20:08;;;;;;;1.90;0.50;;;13.10;99.90;;;;;;4858697;29;20134;-92
2022/11/12 12:23:03;;;;;;;1.60;0.70;;;13.20;99.90;;;;;;4850343;29;20474;-90
2022/11/12 12:25:49;;;;;;;1.52;0.60;;;13.40;99.90;;;;;;4851016;29;20139;-90
2022/11/12 12:29:04;;;;;;;1.88;0.70;;;13.40;99.90;;;;;;4848228;29;20086;-90
2022/11/12 12:32:20;;;;;;;1.42;0.57;;;13.60;99.90;;;;;;4840475;29;20406;-90
2022/11/12 12:35:25;;;;;;;2.22;0.80;;;13.60;99.90;;;;;;4872665;29;20056;-89
2022/11/12 12:38:40;;;;;;;1.38;0.50;;;13.70;99.90;;;;;;4854715;29;20085;-91
2022/11/12 12:41:28;;;;;;;1.60;0.60;;;13.70;99.90;;;;;;4856637;29;20072;-91
2022/11/12 12:44:13;;;;;;;1.55;0.60;;;13.70;99.90;;;;;;4867203;29;20599;-90
2022/11/12 12:46:59;;;;;;;1.80;0.70;;;13.70;99.90;;;;;;4854164;29;20089;-90
2022/11/12 12:49:46;;;;;;;1.50;0.60;;;13.70;99.90;;;;;;4867681;29;20052;-90
2022/11/12 12:52:58;;;;;;;2.05;0.70;;;13.70;99.90;;;;;;4854307;29;20570;-90
2022/11/12 12:55:45;;;;;;;2.00;0.80;;;13.80;99.90;;;;;;4865149;29;20517;-88
2022/11/12 12:58:44;;;;;;;1.98;0.60;;;13.90;99.90;;;;;;4870402;29;20060;-90
2022/11/12 13:01:32;;;;;;;1.88;0.60;;;14.00;99.90;;;;;;4868343;29;20455;-90
2022/11/12 13:04:37;;;;;;;1.75;0.60;;;14.10;99.90;;;;;;4867723;29;20120;-90
2022/11/12 13:07:40;;;;;;;1.27;0.50;;;14.20;99.90;;;;;;4855744;29;20080;-91
2022/11/12 13:10:46;;;;;;;1.80;0.60;;;14.10;99.90;;;;;;4855094;29;20128;-90
2022/11/12 13:13:36;;;;;;;1.65;0.60;;;14.10;99.90;;;;;;4866733;29;20184;-90
2022/11/12 13:16:51;;;;;;;1.75;0.50;;;14.20;99.90;;;;;;4857445;29;20901;-90
2022/11/12 13:19:36;;;;;;;1.70;0.50;;;14.00;99.90;;;;;;4865394;29;20124;-90
2022/11/12 13:22:24;;;;;;;1.80;0.60;;;14.10;99.90;;;;;;4853948;29;20092;-89
2022/11/12 13:25:11;;;;;;;2.53;0.60;;;14.00;99.90;;;;;;4850523;29;20037;-91
2022/11/12 13:28:01;;;;;;;1.23;0.50;;;13.90;99.90;;;;;;4849130;29;20045;-90
2022/11/12 13:30:45;;;;;;;1.30;0.50;;;14.00;99.90;;;;;;4863829;29;20133;-90
2022/11/12 13:33:31;;;;;;;0.90;0.40;;;14.10;99.90;;;;;;4856136;29;20093;-90
2022/11/12 13:36:24;;;;;;;1.63;0.40;;;14.00;99.90;;;;;;4850917;29;20191;-90
2022/11/12 13:39:15;;;;;;;1.75;0.50;;;14.10;99.90;;;;;;4849195;29;20324;-90
2022/11/12 13:45:12;;;;;;;1.33;0.50;;;14.00;99.90;;;;;;4853678;29;20041;-90
2022/11/12 13:47:57;;;;;;;1.35;0.40;;;14.00;99.90;;;;;;4853984;29;20094;-90
2022/11/12 13:50:47;;;;;;;2.20;0.57;;;13.90;99.90;;;;;;4852984;29;20032;-89
2022/11/12 13:53:32;;;;;;;1.58;0.52;;;13.90;99.90;;;;;;4849906;29;20361;-89
2022/11/12 13:56:30;;;;;;;1.50;0.55;;;13.90;99.90;;;;;;4848972;29;20613;-89
2022/11/12 13:59:22;;;;;;;1.70;0.60;;;14.00;99.90;;;;;;4850010;29;20044;-90
2022/11/12 14:02:25;;;;;;;1.00;0.47;;;13.90;99.90;;;;;;4852806;29;20103;-89
2022/11/12 14:05:18;;;;;;;1.77;0.63;;;14.00;99.90;;;;;;4851413;29;20048;-89
2022/11/12 14:08:35;;;;;;;1.10;0.45;;;14.00;99.90;;;;;;4862484;29;20048;-90
2022/11/12 14:11:51;;;;;;;1.60;0.50;;;13.80;99.90;;;;;;4865643;29;20047;-90
2022/11/12 14:15:26;;;;;;;1.27;0.50;;;13.90;99.90;;;;;;4851477;29;20169;-90
2022/11/12 14:18:22;;;;;;;1.75;0.60;;;13.80;99.90;;;;;;4765528;30;20057;-90
2022/11/12 14:21:14;;;;;;;2.05;0.70;;;13.70;99.90;;;;;;4768841;30;20058;-90
2022/11/12 14:24:02;;;;;;;2.15;0.70;;;13.60;99.90;;;;;;4768119;30;20618;-90
2022/11/12 14:26:46;;;;;;;1.65;0.68;;;13.60;99.90;;;;;;4781667;30;20057;-90
2022/11/12 14:29:30;;;;;;;1.75;0.60;;;13.50;99.90;;;;;;4781233;30;20408;-90
2022/11/12 14:32:14;;;;;;;2.80;0.50;;;13.50;99.90;;;;;;4779290;30;20715;-90
2022/11/12 14:34:59;;;;;;;1.67;0.50;;;13.40;99.90;;;;;;4780217;30;20095;-90
2022/11/12 14:37:56;;;;;;;2.40;0.70;;;13.40;99.90;;;;;;4768498;30;20133;-91
2022/11/12 14:40:56;;;;;;;2.53;0.70;;;13.30;99.90;;;;;;4768414;30;20093;-90
2022/11/12 14:43:44;;;;;;;3.78;0.70;;;13.20;99.90;;;;;;4768417;30;20122;-90
2022/11/12 14:46:34;;;;;;;4.20;0.90;;;13.10;99.90;;;;;;4768266;30;20047;-90
2022/11/12 14:49:41;;;;;;;2.40;0.85;;;13.10;99.90;;;;;;4780591;30;20043;-90
2022/11/12 14:52:34;;;;;;;2.20;0.73;;;13.00;99.90;;;;;;4783212;29;20069;-90
2022/11/12 14:55:22;;;;;;;3.60;0.75;;;12.90;99.90;;;;;;4851923;29;20877;-90
2022/11/12 14:58:15;;;;;;;2.97;0.65;;;12.90;99.90;;;;;;4865427;29;20044;-90
2022/11/12 15:01:27;;;;;;;1.80;0.70;;;12.80;99.90;;;;;;4849946;29;20445;-90
2022/11/12 15:04:14;;;;;;;2.25;0.60;;;12.80;99.90;;;;;;4850658;29;20048;-90
2022/11/12 15:06:59;;;;;;;2.92;0.70;;;12.70;99.90;;;;;;4851348;29;20418;-91
2022/11/12 15:09:43;;;;;;;2.90;0.70;;;12.60;99.90;;;;;;4852037;29;20087;-90
2022/11/12 15:12:31;;;;;;;2.85;0.60;;;12.50;99.90;;;;;;4853221;29;20043;-90
2022/11/12 15:15:23;;;;;;;3.35;1.00;;;12.50;99.90;;;;;;4864160;29;20048;-91